Time;durP1;ratioP1;P1;durP2;ratioP2;P2;SDS_P1;SDS_P2;PMS_P1;PMS_P2;Temp;Humidity;BMP_temperature;BMP_pressure;BME280_temperature;BME280_humidity;BME280_pressure;Samples;Min_cycle;Max_cycle;Signal;HPM_P1;HPM_P2
2023/11/23 00:00:08;;;;;;;16.55;10.77;;;5.20;89.50;;;;;;5137981;27;20284;-87
2023/11/23 00:02:35;;;;;;;15.10;11.00;;;5.20;89.60;;;;;;5138066;27;20291;-88
2023/11/23 00:05:02;;;;;;;14.70;10.52;;;5.20;89.20;;;;;;5138218;27;20219;-88
2023/11/23 00:07:31;;;;;;;14.45;11.55;;;5.20;88.50;;;;;;5138228;27;20257;-87
2023/11/23 00:09:58;;;;;;;15.82;11.25;;;5.20;88.50;;;;;;5137715;27;20249;-87
2023/11/23 00:12:25;;;;;;;13.60;11.30;;;5.20;89.20;;;;;;5137741;27;20188;-87
2023/11/23 00:14:52;;;;;;;16.50;10.10;;;5.20;89.40;;;;;;5137985;27;20228;-87
2023/11/23 00:17:21;;;;;;;12.73;10.05;;;5.20;89.40;;;;;;5137720;27;20280;-88
2023/11/23 00:19:48;;;;;;;12.73;9.82;;;5.20;89.90;;;;;;5137924;27;20260;-87
2023/11/23 00:22:16;;;;;;;13.05;10.10;;;5.20;88.90;;;;;;5137845;27;20221;-87
2023/11/23 00:24:43;;;;;;;13.60;9.88;;;5.10;88.40;;;;;;5137874;27;20192;-88
2023/11/23 00:27:14;;;;;;;13.88;9.43;;;5.10;88.10;;;;;;5137814;27;20379;-89
2023/11/23 00:29:41;;;;;;;12.98;9.65;;;5.10;88.90;;;;;;5138004;27;20181;-87
2023/11/23 00:32:08;;;;;;;13.50;10.23;;;5.10;88.80;;;;;;5137685;27;20188;-87
2023/11/23 00:34:37;;;;;;;13.27;10.02;;;5.10;88.80;;;;;;5137699;27;20591;-88
2023/11/23 00:37:07;;;;;;;12.18;9.07;;;5.10;89.00;;;;;;5137331;27;20223;-88
2023/11/23 00:39:34;;;;;;;12.18;9.35;;;5.10;89.20;;;;;;5137189;27;20622;-87
2023/11/23 00:42:01;;;;;;;13.13;8.68;;;5.10;89.00;;;;;;5137471;27;20247;-88
2023/11/23 00:44:28;;;;;;;12.70;9.38;;;5.10;89.00;;;;;;5137446;27;20250;-87
2023/11/23 00:46:54;;;;;;;14.20;9.57;;;5.00;89.50;;;;;;5136833;27;20311;-88
2023/11/23 00:49:21;;;;;;;12.20;8.75;;;5.10;89.20;;;;;;5137178;27;20227;-88
2023/11/23 00:51:50;;;;;;;11.63;8.98;;;5.00;88.80;;;;;;5136696;27;20203;-88
2023/11/23 00:54:17;;;;;;;14.20;9.82;;;5.10;89.40;;;;;;5136712;27;20226;-88
2023/11/23 00:56:44;;;;;;;11.68;8.68;;;5.10;89.70;;;;;;5136641;27;20192;-88
2023/11/23 00:59:11;;;;;;;12.45;8.90;;;5.10;89.00;;;;;;5136637;27;20192;-88
2023/11/23 01:01:39;;;;;;;12.88;10.07;;;5.00;89.00;;;;;;5136614;27;20238;-87
2023/11/23 01:04:07;;;;;;;11.65;9.30;;;5.00;89.00;;;;;;5136450;27;20299;-88
2023/11/23 01:06:34;;;;;;;12.02;8.77;;;5.00;89.30;;;;;;5136486;27;20192;-87
2023/11/23 01:09:03;;;;;;;12.90;9.27;;;5.10;89.40;;;;;;5136441;27;20220;-88
2023/11/23 01:11:29;;;;;;;13.10;9.02;;;5.00;89.10;;;;;;5136811;27;20188;-88
2023/11/23 01:13:56;;;;;;;12.25;8.52;;;5.00;89.10;;;;;;5136415;27;20287;-88
2023/11/23 01:16:25;;;;;;;14.77;9.15;;;4.90;89.00;;;;;;5136616;27;20219;-88
2023/11/23 01:18:51;;;;;;;12.52;8.38;;;4.90;89.40;;;;;;5136354;27;20188;-88
2023/11/23 01:21:18;;;;;;;13.23;9.25;;;5.00;90.00;;;;;;5136488;27;20231;-87
2023/11/23 01:23:45;;;;;;;14.13;10.82;;;5.00;90.00;;;;;;5136015;27;20741;-87
2023/11/23 01:26:13;;;;;;;13.10;9.45;;;5.00;90.10;;;;;;5136438;27;20219;-87
2023/11/23 01:28:40;;;;;;;13.98;8.93;;;5.00;90.10;;;;;;5136756;27;20276;-87
2023/11/23 01:31:10;;;;;;;12.95;9.55;;;5.00;89.90;;;;;;5136345;27;20545;-88
2023/11/23 01:33:37;;;;;;;13.93;10.35;;;5.00;90.00;;;;;;5136226;27;20192;-87
2023/11/23 01:36:04;;;;;;;11.18;8.55;;;5.00;90.00;;;;;;5136008;27;20258;-88
2023/11/23 01:38:31;;;;;;;12.38;8.90;;;5.00;90.20;;;;;;5135879;27;20718;-88
2023/11/23 01:40:58;;;;;;;13.27;8.98;;;5.00;90.40;;;;;;5136123;27;20220;-88
2023/11/23 01:43:26;;;;;;;16.45;9.90;;;5.00;90.60;;;;;;5135979;27;20303;-88
2023/11/23 01:45:53;;;;;;;10.55;8.73;;;5.00;90.60;;;;;;5135670;27;20255;-88
2023/11/23 01:48:21;;;;;;;11.18;8.40;;;5.00;90.60;;;;;;5135621;27;20275;-88
2023/11/23 01:50:49;;;;;;;13.48;9.23;;;5.10;90.60;;;;;;5135406;27;20184;-88
2023/11/23 01:53:17;;;;;;;11.50;8.45;;;5.00;90.50;;;;;;5135530;27;20611;-88
2023/11/23 01:55:46;;;;;;;13.13;8.98;;;5.00;90.60;;;;;;5135583;27;20230;-88
2023/11/23 01:58:16;;;;;;;11.38;8.80;;;5.10;90.70;;;;;;5135823;27;20199;-88
2023/11/23 02:00:46;;;;;;;14.88;10.20;;;5.10;90.80;;;;;;5135910;27;20192;-88
2023/11/23 02:03:13;;;;;;;11.18;8.90;;;5.10;90.80;;;;;;5135330;27;20200;-88
2023/11/23 02:05:40;;;;;;;14.63;9.65;;;5.10;90.70;;;;;;5135267;27;20946;-88
2023/11/23 02:08:07;;;;;;;13.98;8.43;;;5.10;90.90;;;;;;5135605;27;20220;-88
2023/11/23 02:10:34;;;;;;;13.23;9.60;;;5.10;91.00;;;;;;5135492;27;20192;-88
2023/11/23 02:13:03;;;;;;;12.10;9.18;;;5.10;91.10;;;;;;5135596;27;20620;-88
2023/11/23 02:15:30;;;;;;;13.45;8.30;;;5.20;91.30;;;;;;5135441;27;20192;-88
2023/11/23 02:18:02;;;;;;;12.35;8.05;;;5.20;91.00;;;;;;5135118;27;20635;-89
2023/11/23 02:20:29;;;;;;;14.68;9.75;;;5.20;90.60;;;;;;5135733;27;20196;-88
2023/11/23 02:22:56;;;;;;;10.70;7.20;;;5.20;90.50;;;;;;5135241;27;20298;-88
2023/11/23 02:25:25;;;;;;;15.32;8.90;;;5.20;90.30;;;;;;5134915;27;20275;-88
2023/11/23 02:27:53;;;;;;;16.40;10.55;;;5.20;90.50;;;;;;5135237;27;20184;-88
2023/11/23 02:30:19;;;;;;;18.15;10.10;;;5.30;90.60;;;;;;5135188;27;20192;-88
2023/11/23 02:32:46;;;;;;;16.90;10.10;;;5.30;90.70;;;;;;5135117;27;20223;-88
2023/11/23 02:35:14;;;;;;;14.60;10.63;;;5.30;90.70;;;;;;5135029;27;20274;-88
2023/11/23 02:37:41;;;;;;;14.88;11.40;;;5.30;90.80;;;;;;5135110;27;20227;-88
2023/11/23 02:40:10;;;;;;;17.00;10.25;;;5.30;90.70;;;;;;5134738;27;20228;-88
2023/11/23 02:42:39;;;;;;;16.58;11.30;;;5.30;90.80;;;;;;5134654;27;20571;-88
2023/11/23 02:45:08;;;;;;;15.82;10.43;;;5.30;90.90;;;;;;5134788;27;20228;-88
2023/11/23 02:47:35;;;;;;;14.13;10.05;;;5.30;91.00;;;;;;5134716;27;20702;-88
2023/11/23 02:50:04;;;;;;;14.98;10.13;;;5.30;91.20;;;;;;5134906;27;20192;-88
2023/11/23 02:52:31;;;;;;;14.57;9.40;;;5.30;91.10;;;;;;5134792;27;20612;-88
2023/11/23 02:54:58;;;;;;;15.38;10.27;;;5.30;91.10;;;;;;5134459;27;20196;-90
2023/11/23 02:57:25;;;;;;;12.63;8.57;;;5.30;90.90;;;;;;5134847;27;20231;-88
2023/11/23 02:59:53;;;;;;;11.60;7.70;;;5.30;90.70;;;;;;5134529;27;20278;-88
2023/11/23 03:02:20;;;;;;;14.25;9.60;;;5.30;90.60;;;;;;5133683;27;20224;-88
2023/11/23 03:04:47;;;;;;;15.80;9.35;;;5.30;90.50;;;;;;5134254;27;20758;-88
2023/11/23 03:07:14;;;;;;;12.70;7.82;;;5.30;90.60;;;;;;5134566;27;20275;-88
2023/11/23 03:09:41;;;;;;;13.65;8.45;;;5.30;90.70;;;;;;5134409;27;20185;-88
2023/11/23 03:12:08;;;;;;;12.07;7.32;;;5.30;90.80;;;;;;5134223;27;20693;-87
2023/11/23 03:14:35;;;;;;;12.30;8.95;;;5.30;90.50;;;;;;5134515;27;20275;-88
2023/11/23 03:17:04;;;;;;;10.70;7.50;;;5.30;90.60;;;;;;5134612;27;20192;-88
2023/11/23 03:19:33;;;;;;;13.27;8.15;;;5.30;90.10;;;;;;5134172;27;20287;-89
2023/11/23 03:22:00;;;;;;;10.38;7.90;;;5.30;89.70;;;;;;5134496;27;20591;-88
2023/11/23 03:24:27;;;;;;;11.55;8.27;;;5.30;89.20;;;;;;5134433;27;20299;-88
2023/11/23 03:26:54;;;;;;;12.70;8.15;;;5.30;90.00;;;;;;5134364;27;20223;-89
2023/11/23 03:29:22;;;;;;;13.93;8.93;;;5.30;88.40;;;;;;5134548;27;20586;-88
2023/11/23 03:31:49;;;;;;;11.77;8.35;;;5.20;88.90;;;;;;5134094;27;20198;-88
2023/11/23 03:34:17;;;;;;;12.15;9.52;;;5.30;89.70;;;;;;5134318;27;20602;-88
2023/11/23 03:36:44;;;;;;;12.00;7.78;;;5.30;89.40;;;;;;5134327;27;20278;-88
2023/11/23 03:39:12;;;;;;;10.20;7.97;;;5.30;89.60;;;;;;5133877;27;20642;-88
2023/11/23 03:41:39;;;;;;;16.38;8.65;;;5.30;89.70;;;;;;5134292;27;20268;-87
2023/11/23 03:44:06;;;;;;;9.07;7.30;;;5.30;90.00;;;;;;5134262;27;20299;-89
2023/11/23 03:46:33;;;;;;;10.30;7.65;;;5.30;90.00;;;;;;5134218;27;20705;-88
2023/11/23 03:49:00;;;;;;;11.57;8.32;;;5.30;89.40;;;;;;5134502;27;20226;-89
2023/11/23 03:51:28;;;;;;;10.77;7.40;;;5.30;89.40;;;;;;5134466;27;20224;-89
2023/11/23 03:53:55;;;;;;;11.48;7.65;;;5.30;89.20;;;;;;5134371;27;20289;-89
2023/11/23 03:56:22;;;;;;;13.50;7.72;;;5.20;89.10;;;;;;5133997;27;20224;-89
2023/11/23 03:58:49;;;;;;;10.00;6.95;;;5.30;89.30;;;;;;5134293;27;20196;-89
2023/11/23 04:01:17;;;;;;;12.07;7.97;;;5.30;89.30;;;;;;5134092;27;20220;-88
2023/11/23 04:03:45;;;;;;;10.85;6.95;;;5.30;88.80;;;;;;5134337;27;20228;-88
2023/11/23 04:06:12;;;;;;;13.20;7.78;;;5.30;88.90;;;;;;5134478;27;20613;-88
2023/11/23 04:08:41;;;;;;;9.90;6.90;;;5.30;88.60;;;;;;5134202;27;20279;-88
2023/11/23 04:11:10;;;;;;;9.00;6.68;;;5.30;89.00;;;;;;5133864;27;20223;-88
2023/11/23 04:13:37;;;;;;;12.05;7.47;;;5.30;89.20;;;;;;5134218;27;20601;-88
2023/11/23 04:16:04;;;;;;;10.43;6.78;;;5.30;88.80;;;;;;5138048;27;20220;-88
2023/11/23 04:18:31;;;;;;;8.30;6.03;;;5.30;88.60;;;;;;5138124;27;20223;-88
2023/11/23 04:20:58;;;;;;;9.82;6.20;;;5.30;88.40;;;;;;5137727;27;20279;-89
2023/11/23 04:23:25;;;;;;;10.07;6.50;;;5.30;88.50;;;;;;5137802;27;20295;-88
2023/11/23 04:25:53;;;;;;;9.65;7.07;;;5.30;88.80;;;;;;5137836;27;20242;-88
2023/11/23 04:28:20;;;;;;;9.23;6.80;;;5.30;88.90;;;;;;5137846;27;20279;-88
2023/11/23 04:30:47;;;;;;;9.75;6.30;;;5.30;88.80;;;;;;5137426;27;20278;-88
2023/11/23 04:33:15;;;;;;;10.05;6.80;;;5.30;88.80;;;;;;5137456;27;20187;-88
2023/11/23 04:35:42;;;;;;;10.05;6.63;;;5.30;88.60;;;;;;5137382;27;20614;-88
2023/11/23 04:38:08;;;;;;;10.85;6.65;;;5.40;88.60;;;;;;5137360;27;20275;-88
2023/11/23 04:40:35;;;;;;;10.60;6.90;;;5.30;87.30;;;;;;5137643;27;20635;-89
2023/11/23 04:43:05;;;;;;;15.15;8.07;;;5.30;87.30;;;;;;5137438;27;20227;-88
2023/11/23 04:45:32;;;;;;;8.82;6.85;;;5.30;87.50;;;;;;5137355;27;20220;-88
2023/11/23 04:47:58;;;;;;;12.80;9.85;;;5.30;87.80;;;;;;5137263;27;20570;-88
2023/11/23 04:50:25;;;;;;;11.13;7.75;;;5.20;86.70;;;;;;5136934;27;20192;-88
2023/11/23 04:52:52;;;;;;;9.75;6.55;;;5.20;86.40;;;;;;5136817;27;20715;-88
2023/11/23 04:55:20;;;;;;;10.23;7.43;;;5.30;86.50;;;;;;5136965;27;20192;-89
2023/11/23 04:57:47;;;;;;;11.63;8.20;;;5.20;87.30;;;;;;5137035;27;20195;-89
2023/11/23 05:00:24;;;;;;;12.30;8.15;;;5.30;85.60;;;;;;5136930;27;20235;-89
2023/11/23 05:02:51;;;;;;;11.20;6.95;;;5.30;85.00;;;;;;5137313;27;20207;-88
2023/11/23 05:05:17;;;;;;;10.23;7.22;;;5.20;83.90;;;;;;5136737;27;20208;-87
2023/11/23 05:07:44;;;;;;;10.60;6.60;;;5.20;84.50;;;;;;5136611;27;20245;-88
2023/11/23 05:10:11;;;;;;;12.30;7.53;;;5.10;83.70;;;;;;5136914;27;20606;-88
2023/11/23 05:12:38;;;;;;;9.10;6.20;;;5.00;84.50;;;;;;5136985;27;20224;-88
2023/11/23 05:15:06;;;;;;;9.13;5.60;;;4.90;85.30;;;;;;5136693;27;20283;-88
2023/11/23 05:17:34;;;;;;;10.52;6.55;;;4.90;86.00;;;;;;5137005;27;20188;-88
2023/11/23 05:20:02;;;;;;;9.45;5.93;;;4.90;85.80;;;;;;5136938;27;20588;-88
2023/11/23 05:22:29;;;;;;;11.20;6.55;;;4.90;86.20;;;;;;5136869;27;20188;-89
2023/11/23 05:24:56;;;;;;;10.13;5.78;;;4.90;86.70;;;;;;5136622;27;20246;-89
2023/11/23 05:27:23;;;;;;;9.77;5.97;;;4.90;87.60;;;;;;5135813;27;20198;-89
2023/11/23 05:29:50;;;;;;;10.07;6.07;;;4.90;87.40;;;;;;5136714;27;20592;-89
2023/11/23 05:32:17;;;;;;;10.65;5.78;;;4.90;87.30;;;;;;5136504;27;20287;-89
2023/11/23 05:34:45;;;;;;;9.07;6.50;;;4.90;87.00;;;;;;5136509;27;20615;-89
2023/11/23 05:37:12;;;;;;;11.30;6.68;;;5.00;86.90;;;;;;5136659;27;20192;-89
2023/11/23 05:39:39;;;;;;;11.75;8.18;;;5.00;86.80;;;;;;5136018;27;20600;-89
2023/11/23 05:42:07;;;;;;;12.18;8.02;;;5.00;86.60;;;;;;5136098;27;20313;-88
2023/11/23 05:44:34;;;;;;;10.32;5.90;;;5.00;86.10;;;;;;5135932;27;20211;-88
2023/11/23 05:47:01;;;;;;;13.35;6.95;;;5.00;85.40;;;;;;5136423;27;20220;-88
2023/11/23 05:49:28;;;;;;;9.43;6.97;;;5.00;86.00;;;;;;5136278;27;20227;-88
2023/11/23 05:51:56;;;;;;;31.75;17.67;;;5.00;86.70;;;;;;5135906;27;20275;-89
2023/11/23 05:54:23;;;;;;;15.23;10.15;;;5.00;87.10;;;;;;5136017;27;20238;-89
2023/11/23 05:56:50;;;;;;;13.57;9.35;;;5.00;87.10;;;;;;5136153;27;20220;-88
2023/11/23 05:59:17;;;;;;;9.75;6.88;;;5.00;87.00;;;;;;5136012;27;20220;-89
2023/11/23 06:01:44;;;;;;;10.00;6.32;;;5.10;86.90;;;;;;5136041;27;20613;-89
2023/11/23 06:04:11;;;;;;;10.75;7.00;;;5.10;86.80;;;;;;5135834;27;20250;-90
2023/11/23 06:06:38;;;;;;;11.30;6.50;;;5.10;86.90;;;;;;5135382;27;20677;-89
2023/11/23 06:09:08;;;;;;;8.73;6.43;;;5.10;86.90;;;;;;5135277;27;20594;-89
2023/11/23 06:11:35;;;;;;;10.52;6.45;;;5.10;86.80;;;;;;5135831;27;20219;-88
2023/11/23 06:14:02;;;;;;;8.48;5.97;;;5.10;86.60;;;;;;5135756;27;20188;-88
2023/11/23 06:16:29;;;;;;;10.73;7.32;;;5.10;86.40;;;;;;5135702;27;20280;-89
2023/11/23 06:18:56;;;;;;;10.85;7.93;;;5.10;85.90;;;;;;5135260;27;20188;-89
2023/11/23 06:21:24;;;;;;;9.18;6.47;;;5.00;85.40;;;;;;5135471;27;20184;-88
2023/11/23 06:23:50;;;;;;;10.82;6.70;;;5.00;85.20;;;;;;5141466;27;20211;-90
2023/11/23 06:26:20;;;;;;;11.57;7.00;;;5.10;85.50;;;;;;5155786;27;20188;-89
2023/11/23 06:28:48;;;;;;;10.38;6.53;;;5.10;85.90;;;;;;5155460;27;20198;-88
2023/11/23 06:31:15;;;;;;;10.45;6.82;;;5.10;86.40;;;;;;5156066;27;20194;-89
2023/11/23 06:33:44;;;;;;;9.18;5.93;;;5.10;86.50;;;;;;5155549;27;20226;-88
2023/11/23 06:36:11;;;;;;;10.60;6.50;;;5.10;86.70;;;;;;5155516;27;20222;-89
2023/11/23 06:38:38;;;;;;;7.95;5.80;;;5.10;86.80;;;;;;5155469;27;20226;-88
2023/11/23 06:41:05;;;;;;;10.05;6.10;;;5.20;86.60;;;;;;5155592;27;20191;-89
2023/11/23 06:43:33;;;;;;;12.00;6.57;;;5.20;86.00;;;;;;5155319;27;20183;-89
2023/11/23 06:46:01;;;;;;;7.18;5.45;;;5.10;85.90;;;;;;5155087;27;20272;-89
2023/11/23 06:48:28;;;;;;;10.73;6.65;;;5.10;85.90;;;;;;5155520;27;20195;-90
2023/11/23 06:50:55;;;;;;;9.50;6.05;;;5.20;86.10;;;;;;5155743;27;20549;-90
2023/11/23 06:53:22;;;;;;;9.07;6.10;;;5.10;85.90;;;;;;5154591;27;20278;-89
2023/11/23 06:55:49;;;;;;;9.63;6.43;;;5.20;85.80;;;;;;5154451;27;20190;-90
2023/11/23 06:58:16;;;;;;;9.40;6.68;;;5.20;85.80;;;;;;5155263;27;20589;-90
2023/11/23 07:00:44;;;;;;;9.07;6.65;;;5.20;85.70;;;;;;5148539;27;20230;-89
2023/11/23 07:03:11;;;;;;;9.50;5.53;;;5.20;85.80;;;;;;5133870;27;20223;-86
2023/11/23 07:05:38;;;;;;;9.45;6.40;;;5.20;85.40;;;;;;5134488;27;20247;-89
2023/11/23 07:08:05;;;;;;;8.27;5.75;;;5.20;85.10;;;;;;5146353;27;20625;-89
2023/11/23 07:10:33;;;;;;;9.38;5.70;;;5.30;85.00;;;;;;5134294;27;20235;-88
2023/11/23 07:13:03;;;;;;;9.10;5.88;;;5.20;84.30;;;;;;5134338;27;20272;-89
2023/11/23 07:15:30;;;;;;;10.68;6.65;;;5.20;83.80;;;;;;5134523;27;20244;-89
2023/11/23 07:17:59;;;;;;;10.02;6.25;;;5.20;84.60;;;;;;5134109;27;20299;-89
2023/11/23 07:20:27;;;;;;;10.07;5.68;;;5.20;84.90;;;;;;5134507;27;20275;-90
2023/11/23 07:22:54;;;;;;;9.35;6.15;;;5.30;85.00;;;;;;5134160;27;20213;-89
2023/11/23 07:25:21;;;;;;;8.75;5.72;;;5.30;84.90;;;;;;5134426;28;20296;-89
2023/11/23 07:27:47;;;;;;;8.57;5.53;;;5.30;84.70;;;;;;5134359;28;20559;-89
2023/11/23 07:30:14;;;;;;;8.43;5.80;;;5.30;84.50;;;;;;5134277;28;20244;-89
2023/11/23 07:32:41;;;;;;;9.60;5.90;;;5.40;83.90;;;;;;5134311;28;20480;-90
2023/11/23 07:35:10;;;;;;;8.77;6.07;;;5.40;83.30;;;;;;5133960;28;20238;-91
2023/11/23 07:37:37;;;;;;;10.45;6.55;;;5.40;83.20;;;;;;5134352;28;20247;-89
2023/11/23 07:40:12;;;;;;;9.05;5.78;;;5.40;83.30;;;;;;5133937;28;20223;-89
2023/11/23 07:42:40;;;;;;;10.18;6.43;;;5.50;81.80;;;;;;5134273;28;20176;-86
2023/11/23 07:45:08;;;;;;;9.38;6.53;;;5.40;81.60;;;;;;5133954;28;20231;-88
2023/11/23 07:47:35;;;;;;;9.27;6.82;;;5.30;82.10;;;;;;5134190;28;20215;-89
2023/11/23 07:50:03;;;;;;;8.35;5.53;;;5.30;83.00;;;;;;5136925;27;20191;-87
2023/11/23 07:52:32;;;;;;;7.90;5.25;;;5.20;82.50;;;;;;5138026;27;20184;-88
2023/11/23 07:54:59;;;;;;;10.73;6.20;;;5.20;83.00;;;;;;5138272;27;20294;-87
2023/11/23 07:57:27;;;;;;;9.52;6.00;;;5.20;83.60;;;;;;5138152;27;20192;-88
2023/11/23 07:59:57;;;;;;;8.30;5.32;;;5.20;82.60;;;;;;5137875;27;20203;-87
2023/11/23 08:02:25;;;;;;;6.65;4.65;;;5.30;82.50;;;;;;5138083;27;20192;-88
2023/11/23 08:04:52;;;;;;;7.10;4.95;;;5.30;81.70;;;;;;5138018;27;20215;-87
2023/11/23 08:07:20;;;;;;;8.52;5.25;;;5.20;82.10;;;;;;5137991;27;20189;-87
2023/11/23 08:09:48;;;;;;;7.80;5.13;;;5.30;82.20;;;;;;5137954;27;20188;-87
2023/11/23 08:12:17;;;;;;;12.40;7.25;;;5.30;82.30;;;;;;5137987;27;20219;-88
2023/11/23 08:14:44;;;;;;;8.20;5.20;;;5.30;81.80;;;;;;5137629;27;20216;-87
2023/11/23 08:17:12;;;;;;;7.75;4.80;;;5.40;82.10;;;;;;5137849;27;20280;-86
2023/11/23 08:19:39;;;;;;;8.52;5.05;;;5.40;80.50;;;;;;5137469;27;20623;-86
2023/11/23 08:22:08;;;;;;;6.22;4.57;;;5.20;80.30;;;;;;5137375;27;20231;-88
2023/11/23 08:24:35;;;;;;;7.10;4.00;;;5.20;81.10;;;;;;5137272;27;20696;-88
2023/11/23 08:27:04;;;;;;;7.10;4.30;;;5.20;82.30;;;;;;5137683;27;20192;-88
2023/11/23 08:29:31;;;;;;;10.13;5.65;;;5.30;83.50;;;;;;5137648;27;20615;-88
2023/11/23 08:31:58;;;;;;;9.15;5.90;;;5.40;83.20;;;;;;5137299;27;20685;-88
2023/11/23 08:34:25;;;;;;;8.15;4.78;;;5.60;82.90;;;;;;5137126;27;20304;-88
2023/11/23 08:36:54;;;;;;;6.82;4.88;;;5.70;82.60;;;;;;5137145;27;20677;-88
2023/11/23 08:39:21;;;;;;;6.78;4.45;;;5.70;81.60;;;;;;5137375;27;20563;-88
2023/11/23 08:41:48;;;;;;;7.90;5.00;;;5.80;81.40;;;;;;5137390;27;20192;-87
2023/11/23 08:44:18;;;;;;;6.50;4.18;;;5.70;79.80;;;;;;5137123;27;20192;-88
2023/11/23 08:46:45;;;;;;;8.10;4.95;;;5.70;79.90;;;;;;5137049;27;20230;-88
2023/11/23 08:49:12;;;;;;;6.47;3.95;;;5.70;79.30;;;;;;5137326;27;20216;-88
2023/11/23 08:51:39;;;;;;;7.22;4.10;;;5.80;80.10;;;;;;5136895;27;20646;-88
2023/11/23 08:54:08;;;;;;;6.15;3.75;;;5.80;79.90;;;;;;5137102;27;20598;-89
2023/11/23 08:56:35;;;;;;;7.47;4.45;;;5.80;79.50;;;;;;5137072;27;20192;-87
2023/11/23 08:59:02;;;;;;;5.57;4.35;;;5.80;78.40;;;;;;5137048;27;20626;-89
2023/11/23 09:01:31;;;;;;;6.82;4.70;;;5.70;78.30;;;;;;5135655;27;20222;-88
2023/11/23 09:03:58;;;;;;;8.30;5.38;;;5.60;79.00;;;;;;5136560;27;20275;-87
2023/11/23 09:06:25;;;;;;;7.35;4.28;;;6.00;80.90;;;;;;5136812;27;20243;-87
2023/11/23 09:08:52;;;;;;;7.20;4.70;;;6.90;80.70;;;;;;5136859;27;20188;-87
2023/11/23 09:11:19;;;;;;;7.68;4.38;;;7.80;78.80;;;;;;5136686;27;20187;-87
2023/11/23 09:13:46;;;;;;;7.93;5.05;;;8.80;75.80;;;;;;5136810;27;20188;-87
2023/11/23 09:16:13;;;;;;;6.43;3.60;;;9.40;71.60;;;;;;5137004;27;20196;-87
2023/11/23 09:18:42;;;;;;;5.63;4.07;;;10.00;66.70;;;;;;5136649;27;20562;-87
2023/11/23 09:21:10;;;;;;;6.30;3.85;;;10.60;64.20;;;;;;5136905;27;20549;-86
2023/11/23 09:23:37;;;;;;;5.15;3.83;;;11.20;63.10;;;;;;5136534;27;20188;-87
2023/11/23 09:26:05;;;;;;;6.45;3.70;;;11.60;58.70;;;;;;5136411;27;20208;-87
2023/11/23 09:28:32;;;;;;;6.20;4.30;;;11.80;55.70;;;;;;5136343;27;20196;-86
2023/11/23 09:30:59;;;;;;;5.97;4.20;;;12.20;57.20;;;;;;5136499;27;20222;-87
2023/11/23 09:33:26;;;;;;;5.60;3.80;;;12.70;55.90;;;;;;5136390;27;20228;-86
2023/11/23 09:35:54;;;;;;;5.20;3.77;;;13.20;54.40;;;;;;5136342;27;20438;-85
2023/11/23 09:38:22;;;;;;;6.10;4.23;;;13.90;53.50;;;;;;5135900;27;20474;-86
2023/11/23 09:40:49;;;;;;;5.63;3.77;;;14.80;51.20;;;;;;5136171;27;20429;-86
2023/11/23 09:43:16;;;;;;;5.50;3.50;;;15.60;48.20;;;;;;5135770;27;20438;-86
2023/11/23 09:45:44;;;;;;;5.10;3.70;;;15.80;47.40;;;;;;5136079;27;20808;-88
2023/11/23 09:48:15;;;;;;;5.73;4.20;;;15.90;47.40;;;;;;5135986;27;20516;-87
2023/11/23 09:50:43;;;;;;;8.30;4.30;;;16.10;46.40;;;;;;5136050;27;20444;-88
2023/11/23 09:53:13;;;;;;;4.67;3.40;;;16.00;44.40;;;;;;5135607;27;20506;-88
2023/11/23 09:55:40;;;;;;;5.83;3.33;;;15.60;44.30;;;;;;5136014;27;20453;-88
2023/11/23 09:58:07;;;;;;;5.40;3.67;;;15.40;44.60;;;;;;5135531;27;20478;-88
2023/11/23 10:00:35;;;;;;;5.30;3.40;;;15.90;46.50;;;;;;5135805;27;20469;-87
2023/11/23 10:03:07;;;;;;;5.20;3.60;;;16.70;45.80;;;;;;5135801;27;20513;-86
2023/11/23 10:05:34;;;;;;;4.90;3.80;;;17.40;43.30;;;;;;5135762;27;20489;-87
2023/11/23 10:08:04;;;;;;;4.87;3.77;;;18.00;42.90;;;;;;5135746;27;20425;-86
2023/11/23 10:10:32;;;;;;;5.50;3.60;;;18.40;41.60;;;;;;5135525;27;20766;-86
2023/11/23 10:13:00;;;;;;;5.33;3.57;;;18.70;39.30;;;;;;5134992;27;20469;-86
2023/11/23 10:15:27;;;;;;;5.20;3.67;;;19.00;38.20;;;;;;5135271;27;20493;-86
2023/11/23 10:17:54;;;;;;;7.10;4.67;;;19.00;37.60;;;;;;5135138;27;20470;-86
2023/11/23 10:20:22;;;;;;;4.70;3.47;;;19.10;37.00;;;;;;5135502;27;20766;-86
2023/11/23 10:22:50;;;;;;;5.63;4.20;;;19.20;36.60;;;;;;5132597;27;20444;-86
2023/11/23 10:25:25;;;;;;;5.27;3.33;;;19.30;36.60;;;;;;5134850;27;20487;-86
2023/11/23 10:27:56;;;;;;;4.80;3.80;;;19.30;35.60;;;;;;5134774;27;20436;-86
2023/11/23 10:30:24;;;;;;;6.17;3.93;;;19.00;35.10;;;;;;5134969;27;20908;-87
2023/11/23 10:32:53;;;;;;;5.27;3.47;;;18.50;35.20;;;;;;5134652;27;20458;-86
2023/11/23 10:35:21;;;;;;;6.20;3.53;;;18.40;37.10;;;;;;5134712;27;20498;-87
2023/11/23 10:37:54;;;;;;;4.73;3.50;;;18.40;36.10;;;;;;5135207;27;20433;-87
2023/11/23 10:40:21;;;;;;;4.43;3.53;;;18.50;35.40;;;;;;5134696;27;20915;-87
2023/11/23 10:42:50;;;;;;;6.10;4.00;;;18.50;34.80;;;;;;5134786;27;20944;-86
2023/11/23 10:45:20;;;;;;;5.30;3.50;;;18.40;34.60;;;;;;5134264;27;20487;-86
2023/11/23 10:47:50;;;;;;;6.30;3.50;;;18.40;35.90;;;;;;5134645;27;20432;-86
2023/11/23 10:50:19;;;;;;;5.57;3.90;;;18.60;36.90;;;;;;5134331;27;20900;-86
2023/11/23 10:52:47;;;;;;;5.50;3.70;;;18.80;36.10;;;;;;5134568;27;20460;-86
2023/11/23 10:55:14;;;;;;;6.27;4.20;;;19.10;37.00;;;;;;5134498;27;20529;-87
2023/11/23 10:57:45;;;;;;;5.83;3.83;;;19.40;35.20;;;;;;5134471;27;20457;-86
2023/11/23 11:00:16;;;;;;;4.77;3.03;;;19.60;35.80;;;;;;5134793;27;20494;-87
2023/11/23 11:02:46;;;;;;;4.20;2.97;;;19.90;34.60;;;;;;5134574;27;20493;-87
2023/11/23 11:05:26;;;;;;;5.13;3.50;;;20.00;33.70;;;;;;5134485;27;20458;-86
2023/11/23 11:07:57;;;;;;;3.67;2.60;;;20.00;32.40;;;;;;5134728;27;20422;-87
2023/11/23 11:10:24;;;;;;;4.80;2.90;;;20.10;32.50;;;;;;5132915;27;20449;-86
2023/11/23 11:12:51;;;;;;;4.77;3.20;;;20.20;32.10;;;;;;5134092;27;20520;-87
2023/11/23 11:15:21;;;;;;;6.27;3.33;;;20.10;32.50;;;;;;5134346;27;20781;-87
2023/11/23 11:17:51;;;;;;;4.03;3.13;;;20.30;32.20;;;;;;5134526;27;20430;-87
2023/11/23 11:20:22;;;;;;;4.50;3.00;;;20.40;33.20;;;;;;5134643;27;20421;-86
2023/11/23 11:22:56;;;;;;;3.60;2.30;;;20.60;31.80;;;;;;5134386;27;20475;-86
2023/11/23 11:25:23;;;;;;;5.60;3.00;;;20.60;30.70;;;;;;5133907;27;20548;-86
2023/11/23 11:27:51;;;;;;;4.90;3.30;;;20.40;30.60;;;;;;5134125;27;20439;-87
2023/11/23 11:30:24;;;;;;;5.43;3.17;;;20.20;31.20;;;;;;5134390;27;20440;-86
2023/11/23 11:32:53;;;;;;;4.80;3.20;;;20.20;31.90;;;;;;5133993;28;20501;-86
2023/11/23 11:35:20;;;;;;;3.93;2.97;;;20.30;30.00;;;;;;5134374;28;20457;-86
2023/11/23 11:37:48;;;;;;;6.07;3.10;;;20.30;30.20;;;;;;5134328;28;20474;-87
2023/11/23 11:40:16;;;;;;;3.90;2.80;;;20.20;30.10;;;;;;5134156;28;20434;-87
2023/11/23 11:42:44;;;;;;;4.00;2.67;;;20.10;30.00;;;;;;5134424;27;20498;-87
2023/11/23 11:45:12;;;;;;;4.80;3.13;;;20.10;29.60;;;;;;5133622;28;20457;-87
2023/11/23 11:47:42;;;;;;;4.77;2.60;;;20.10;30.40;;;;;;5134241;27;20498;-87
2023/11/23 11:50:12;;;;;;;4.43;2.70;;;20.10;30.70;;;;;;5134250;27;20433;-87
2023/11/23 11:52:40;;;;;;;4.07;2.83;;;20.10;30.00;;;;;;5134349;27;20442;-88
2023/11/23 11:55:07;;;;;;;3.70;2.80;;;20.10;29.40;;;;;;5133795;28;20429;-87
2023/11/23 11:57:40;;;;;;;4.43;2.63;;;19.80;30.00;;;;;;5134236;28;20803;-88
2023/11/23 12:00:08;;;;;;;4.10;2.60;;;19.20;29.70;;;;;;5133766;28;20912;-88
2023/11/23 12:02:35;;;;;;;4.10;2.73;;;18.70;30.00;;;;;;5134150;28;20434;-88
2023/11/23 12:05:03;;;;;;;4.23;2.13;;;18.40;30.80;;;;;;5134625;28;20469;-88
2023/11/23 12:07:31;;;;;;;4.87;2.70;;;18.40;30.90;;;;;;5133571;28;20555;-87
2023/11/23 12:09:59;;;;;;;4.17;2.43;;;18.40;31.70;;;;;;5134156;28;20457;-88
2023/11/23 12:12:26;;;;;;;5.70;2.50;;;18.40;32.40;;;;;;5121042;28;20504;-88
2023/11/23 12:14:56;;;;;;;3.97;2.30;;;18.50;32.40;;;;;;5113497;28;20434;-87
2023/11/23 12:17:23;;;;;;;4.10;2.57;;;18.60;32.10;;;;;;5129571;28;20517;-88
2023/11/23 12:19:51;;;;;;;3.63;2.30;;;18.60;31.40;;;;;;5133032;28;20596;-88
2023/11/23 12:22:21;;;;;;;3.30;2.03;;;18.40;32.00;;;;;;5133716;27;20441;-87
2023/11/23 12:24:50;;;;;;;3.47;2.17;;;18.30;32.60;;;;;;5132976;27;20424;-88
2023/11/23 12:27:18;;;;;;;3.30;1.97;;;18.20;32.30;;;;;;5133332;28;20912;-87
2023/11/23 12:29:45;;;;;;;3.40;2.13;;;18.00;32.90;;;;;;5132792;28;20770;-88
2023/11/23 12:32:12;;;;;;;3.50;2.27;;;17.90;33.80;;;;;;5133637;28;20513;-88
2023/11/23 12:34:39;;;;;;;3.70;2.13;;;17.80;34.90;;;;;;5130110;27;20526;-88
2023/11/23 12:37:06;;;;;;;5.50;2.77;;;17.80;34.20;;;;;;5136902;27;20480;-88
2023/11/23 12:39:33;;;;;;;4.03;2.50;;;17.70;33.50;;;;;;5137053;27;20426;-88
2023/11/23 12:42:02;;;;;;;3.70;2.50;;;17.50;34.10;;;;;;5136930;27;20969;-88
2023/11/23 12:44:29;;;;;;;3.70;2.57;;;17.30;34.40;;;;;;5136329;27;20427;-88
2023/11/23 12:46:56;;;;;;;3.73;2.70;;;17.30;34.80;;;;;;5136939;27;20538;-88
2023/11/23 12:49:23;;;;;;;4.20;2.63;;;17.30;35.10;;;;;;5136951;27;20971;-88